sensor_id;sensor_type;location;lat;lon;timestamp;pressure;altitude;pressure_sealevel;temperature;humidity
5284;BME280;15377;48.540;9.268;2022-11-20T00:01:38;96925.28;;;5.43;100.00
5284;BME280;15377;48.540;9.268;2022-11-20T00:04:03;96936.81;;;5.47;100.00
5284;BME280;15377;48.540;9.268;2022-11-20T00:06:29;96931.31;;;5.38;100.00
5284;BME280;15377;48.540;9.268;2022-11-20T00:08:56;96935.25;;;5.37;100.00
5284;BME280;15377;48.540;9.268;2022-11-20T00:11:23;96936.72;;;5.29;100.00
5284;BME280;15377;48.540;9.268;2022-11-20T00:13:51;96928.66;;;5.25;100.00
5284;BME280;15377;48.540;9.268;2022-11-20T00:16:19;96933.69;;;5.27;100.00
5284;BME280;15377;48.540;9.268;2022-11-20T00:18:46;96935.78;;;5.23;100.00
5284;BME280;15377;48.540;9.268;2022-11-20T00:21:14;96926.34;;;5.15;100.00
5284;BME280;15377;48.540;9.268;2022-11-20T00:23:41;96940.31;;;5.17;100.00
5284;BME280;15377;48.540;9.268;2022-11-20T00:26:09;96935.38;;;5.03;100.00
5284;BME280;15377;48.540;9.268;2022-11-20T00:28:35;96936.28;;;5.00;100.00
5284;BME280;15377;48.540;9.268;2022-11-20T00:31:04;96938.63;;;4.89;100.00
5284;BME280;15377;48.540;9.268;2022-11-20T00:33:30;96938.75;;;4.85;100.00
5284;BME280;15377;48.540;9.268;2022-11-20T00:36:07;96933.25;;;4.76;100.00
5284;BME280;15377;48.540;9.268;2022-11-20T00:38:33;96941.00;;;4.78;100.00
5284;BME280;15377;48.540;9.268;2022-11-20T00:41:01;96937.56;;;4.65;100.00
5284;BME280;15377;48.540;9.268;2022-11-20T00:43:27;96933.25;;;4.55;100.00
5284;BME280;15377;48.540;9.268;2022-11-20T00:46:07;96943.31;;;4.45;100.00
5284;BME280;15377;48.540;9.268;2022-11-20T00:48:33;96942.47;;;4.36;100.00
5284;BME280;15377;48.540;9.268;2022-11-20T00:50:59;96939.56;;;4.30;100.00
5284;BME280;15377;48.540;9.268;2022-11-20T00:53:25;96936.66;;;4.25;100.00
5284;BME280;15377;48.540;9.268;2022-11-20T00:56:01;96948.19;;;4.29;100.00
5284;BME280;15377;48.540;9.268;2022-11-20T00:58:35;96949.28;;;4.19;100.00
5284;BME280;15377;48.540;9.268;2022-11-20T01:01:02;96948.22;;;4.16;100.00
5284;BME280;15377;48.540;9.268;2022-11-20T01:03:31;96936.44;;;3.85;100.00
5284;BME280;15377;48.540;9.268;2022-11-20T01:06:02;96944.38;;;3.80;100.00
5284;BME280;15377;48.540;9.268;2022-11-20T01:08:30;96952.44;;;3.83;100.00
5284;BME280;15377;48.540;9.268;2022-11-20T01:11:08;96953.84;;;3.75;100.00
5284;BME280;15377;48.540;9.268;2022-11-20T01:13:35;96946.25;;;3.70;100.00
5284;BME280;15377;48.540;9.268;2022-11-20T01:18:34;96950.03;;;3.73;100.00
5284;BME280;15377;48.540;9.268;2022-11-20T01:21:04;96949.41;;;3.69;100.00
5284;BME280;15377;48.540;9.268;2022-11-20T01:23:34;96951.47;;;3.52;100.00
5284;BME280;15377;48.540;9.268;2022-11-20T01:26:02;96958.13;;;3.39;100.00
5284;BME280;15377;48.540;9.268;2022-11-20T01:28:28;96959.09;;;3.20;100.00
5284;BME280;15377;48.540;9.268;2022-11-20T01:30:53;96968.31;;;3.10;100.00
5284;BME280;15377;48.540;9.268;2022-11-20T01:33:18;96956.78;;;3.06;100.00
5284;BME280;15377;48.540;9.268;2022-11-20T01:35:44;96950.69;;;3.02;100.00
5284;BME280;15377;48.540;9.268;2022-11-20T01:38:09;96957.66;;;3.03;100.00
5284;BME280;15377;48.540;9.268;2022-11-20T01:40:34;96958.41;;;3.04;100.00
5284;BME280;15377;48.540;9.268;2022-11-20T01:43:14;96953.31;;;3.06;100.00
5284;BME280;15377;48.540;9.268;2022-11-20T01:48:39;96951.56;;;2.99;100.00
5284;BME280;15377;48.540;9.268;2022-11-20T01:51:12;96958.06;;;2.89;100.00
5284;BME280;15377;48.540;9.268;2022-11-20T01:53:40;96955.69;;;2.91;100.00
5284;BME280;15377;48.540;9.268;2022-11-20T01:56:08;96959.34;;;2.72;100.00
5284;BME280;15377;48.540;9.268;2022-11-20T01:58:38;96954.97;;;2.75;100.00
5284;BME280;15377;48.540;9.268;2022-11-20T02:01:06;96951.31;;;2.81;100.00
5284;BME280;15377;48.540;9.268;2022-11-20T02:03:31;96952.84;;;2.82;100.00
5284;BME280;15377;48.540;9.268;2022-11-20T02:06:04;96958.47;;;2.75;100.00
5284;BME280;15377;48.540;9.268;2022-11-20T02:08:31;96953.66;;;2.67;100.00
5284;BME280;15377;48.540;9.268;2022-11-20T02:10:57;96920.47;;;2.47;100.00
5284;BME280;15377;48.540;9.268;2022-11-20T02:13:22;96953.81;;;2.47;100.00
5284;BME280;15377;48.540;9.268;2022-11-20T02:16:10;96947.72;;;2.43;100.00
5284;BME280;15377;48.540;9.268;2022-11-20T02:18:37;96944.00;;;2.37;100.00
5284;BME280;15377;48.540;9.268;2022-11-20T02:21:08;96945.25;;;2.49;100.00
5284;BME280;15377;48.540;9.268;2022-11-20T02:24:07;96951.78;;;2.51;100.00
5284;BME280;15377;48.540;9.268;2022-11-20T02:26:52;96948.38;;;2.47;100.00
5284;BME280;15377;48.540;9.268;2022-11-20T02:29:37;96954.50;;;2.51;100.00
5284;BME280;15377;48.540;9.268;2022-11-20T02:32:05;96952.78;;;2.57;100.00
5284;BME280;15377;48.540;9.268;2022-11-20T02:34:31;96953.22;;;2.68;100.00
5284;BME280;15377;48.540;9.268;2022-11-20T02:36:57;96948.13;;;2.70;100.00
5284;BME280;15377;48.540;9.268;2022-11-20T02:39:25;96944.13;;;2.87;100.00
5284;BME280;15377;48.540;9.268;2022-11-20T02:41:53;96939.59;;;3.09;100.00
5284;BME280;15377;48.540;9.268;2022-11-20T02:44:19;96935.69;;;3.10;100.00
5284;BME280;15377;48.540;9.268;2022-11-20T02:46:45;96924.28;;;3.03;100.00
5284;BME280;15377;48.540;9.268;2022-11-20T02:49:10;96914.50;;;3.05;100.00
5284;BME280;15377;48.540;9.268;2022-11-20T02:51:36;96932.88;;;3.26;100.00
5284;BME280;15377;48.540;9.268;2022-11-20T02:54:01;96926.16;;;3.43;100.00
5284;BME280;15377;48.540;9.268;2022-11-20T02:56:27;96922.19;;;3.69;100.00
5284;BME280;15377;48.540;9.268;2022-11-20T02:58:52;96927.81;;;3.87;100.00
5284;BME280;15377;48.540;9.268;2022-11-20T03:01:18;96905.19;;;3.90;100.00
5284;BME280;15377;48.540;9.268;2022-11-20T03:03:43;96914.78;;;4.16;100.00
5284;BME280;15377;48.540;9.268;2022-11-20T03:06:08;96913.09;;;4.31;100.00
5284;BME280;15377;48.540;9.268;2022-11-20T03:08:34;96929.69;;;4.45;100.00
5284;BME280;15377;48.540;9.268;2022-11-20T03:11:05;96924.44;;;4.51;100.00
5284;BME280;15377;48.540;9.268;2022-11-20T03:13:31;96913.53;;;4.51;100.00
5284;BME280;15377;48.540;9.268;2022-11-20T03:15:57;96923.19;;;4.64;100.00
5284;BME280;15377;48.540;9.268;2022-11-20T03:18:22;96926.03;;;4.61;100.00
5284;BME280;15377;48.540;9.268;2022-11-20T03:20:47;96921.78;;;4.60;100.00
5284;BME280;15377;48.540;9.268;2022-11-20T03:23:13;96935.59;;;4.65;100.00
5284;BME280;15377;48.540;9.268;2022-11-20T03:25:38;96941.81;;;4.66;100.00
5284;BME280;15377;48.540;9.268;2022-11-20T03:28:03;96944.09;;;4.67;100.00
5284;BME280;15377;48.540;9.268;2022-11-20T03:30:29;96955.94;;;4.73;100.00
5284;BME280;15377;48.540;9.268;2022-11-20T03:32:54;96938.13;;;4.60;100.00
5284;BME280;15377;48.540;9.268;2022-11-20T03:35:20;96942.56;;;4.66;100.00
5284;BME280;15377;48.540;9.268;2022-11-20T03:37:45;96952.75;;;4.75;100.00
5284;BME280;15377;48.540;9.268;2022-11-20T03:40:11;96949.47;;;4.80;100.00
5284;BME280;15377;48.540;9.268;2022-11-20T03:42:37;96955.75;;;4.89;100.00
5284;BME280;15377;48.540;9.268;2022-11-20T03:45:16;96959.88;;;4.94;100.00
5284;BME280;15377;48.540;9.268;2022-11-20T03:47:42;96950.91;;;4.93;100.00
5284;BME280;15377;48.540;9.268;2022-11-20T03:50:09;96962.78;;;4.99;100.00
5284;BME280;15377;48.540;9.268;2022-11-20T03:52:34;96959.22;;;5.11;100.00
5284;BME280;15377;48.540;9.268;2022-11-20T03:55:00;96951.22;;;5.17;100.00
5284;BME280;15377;48.540;9.268;2022-11-20T03:57:25;96964.63;;;5.33;100.00
5284;BME280;15377;48.540;9.268;2022-11-20T03:59:50;96967.72;;;5.44;100.00
5284;BME280;15377;48.540;9.268;2022-11-20T04:02:16;96976.41;;;5.51;100.00
5284;BME280;15377;48.540;9.268;2022-11-20T04:04:41;96970.81;;;5.55;100.00
5284;BME280;15377;48.540;9.268;2022-11-20T04:07:06;96968.84;;;5.64;100.00
5284;BME280;15377;48.540;9.268;2022-11-20T04:09:32;96974.19;;;5.68;100.00
5284;BME280;15377;48.540;9.268;2022-11-20T04:11:57;96981.78;;;5.73;100.00
5284;BME280;15377;48.540;9.268;2022-11-20T04:14:22;96984.81;;;5.75;100.00
5284;BME280;15377;48.540;9.268;2022-11-20T04:16:48;96981.19;;;5.78;100.00
5284;BME280;15377;48.540;9.268;2022-11-20T04:19:15;96974.44;;;5.82;100.00
5284;BME280;15377;48.540;9.268;2022-11-20T04:21:42;96976.41;;;5.91;100.00
5284;BME280;15377;48.540;9.268;2022-11-20T04:24:08;96971.59;;;5.95;100.00
5284;BME280;15377;48.540;9.268;2022-11-20T04:26:33;96980.97;;;5.94;100.00
5284;BME280;15377;48.540;9.268;2022-11-20T04:28:59;96977.66;;;5.99;100.00
5284;BME280;15377;48.540;9.268;2022-11-20T04:31:32;96978.28;;;6.03;100.00
5284;BME280;15377;48.540;9.268;2022-11-20T04:34:03;96967.94;;;6.07;100.00
5284;BME280;15377;48.540;9.268;2022-11-20T04:36:30;96977.81;;;6.04;100.00
5284;BME280;15377;48.540;9.268;2022-11-20T04:39:01;96966.44;;;6.06;100.00
5284;BME280;15377;48.540;9.268;2022-11-20T04:41:29;96976.72;;;6.02;100.00
5284;BME280;15377;48.540;9.268;2022-11-20T04:43:57;96975.84;;;6.05;100.00
5284;BME280;15377;48.540;9.268;2022-11-20T04:46:29;96967.34;;;6.03;100.00
5284;BME280;15377;48.540;9.268;2022-11-20T04:48:55;96975.53;;;6.03;100.00
5284;BME280;15377;48.540;9.268;2022-11-20T04:51:20;96972.81;;;6.03;100.00
5284;BME280;15377;48.540;9.268;2022-11-20T04:53:45;96969.47;;;6.08;100.00
5284;BME280;15377;48.540;9.268;2022-11-20T04:56:12;96967.22;;;6.06;100.00
5284;BME280;15377;48.540;9.268;2022-11-20T04:58:37;96970.97;;;6.09;100.00
5284;BME280;15377;48.540;9.268;2022-11-20T05:01:05;96974.03;;;6.11;100.00
5284;BME280;15377;48.540;9.268;2022-11-20T05:03:31;96964.91;;;6.05;100.00
5284;BME280;15377;48.540;9.268;2022-11-20T05:06:00;96975.84;;;6.05;100.00
5284;BME280;15377;48.540;9.268;2022-11-20T05:08:25;96962.63;;;6.03;100.00
5284;BME280;15377;48.540;9.268;2022-11-20T05:10:50;96969.16;;;6.06;100.00
5284;BME280;15377;48.540;9.268;2022-11-20T05:13:16;96978.88;;;6.07;100.00
5284;BME280;15377;48.540;9.268;2022-11-20T05:15:41;96962.50;;;6.07;100.00
5284;BME280;15377;48.540;9.268;2022-11-20T05:18:06;96971.47;;;6.16;100.00
5284;BME280;15377;48.540;9.268;2022-11-20T05:20:32;96965.84;;;6.20;100.00
5284;BME280;15377;48.540;9.268;2022-11-20T05:22:57;96963.56;;;6.18;100.00
5284;BME280;15377;48.540;9.268;2022-11-20T05:25:23;96979.81;;;6.22;100.00
5284;BME280;15377;48.540;9.268;2022-11-20T05:27:49;96968.59;;;6.20;100.00
5284;BME280;15377;48.540;9.268;2022-11-20T05:30:14;96970.41;;;6.23;100.00
5284;BME280;15377;48.540;9.268;2022-11-20T05:32:40;96971.47;;;6.25;100.00
5284;BME280;15377;48.540;9.268;2022-11-20T05:35:05;96960.41;;;6.20;100.00
5284;BME280;15377;48.540;9.268;2022-11-20T05:37:31;96973.44;;;6.25;100.00
5284;BME280;15377;48.540;9.268;2022-11-20T05:39:56;96972.22;;;6.17;100.00
5284;BME280;15377;48.540;9.268;2022-11-20T05:42:21;96961.28;;;6.17;100.00
5284;BME280;15377;48.540;9.268;2022-11-20T05:44:59;96966.00;;;6.16;100.00
5284;BME280;15377;48.540;9.268;2022-11-20T05:47:26;96951.25;;;6.05;100.00
5284;BME280;15377;48.540;9.268;2022-11-20T05:49:52;96951.25;;;6.05;100.00
5284;BME280;15377;48.540;9.268;2022-11-20T05:52:17;96959.47;;;6.05;100.00
5284;BME280;15377;48.540;9.268;2022-11-20T05:54:42;96951.25;;;5.96;100.00
5284;BME280;15377;48.540;9.268;2022-11-20T05:57:08;96952.47;;;5.95;100.00
5284;BME280;15377;48.540;9.268;2022-11-20T05:59:33;96954.88;;;6.02;100.00
5284;BME280;15377;48.540;9.268;2022-11-20T06:01:59;96959.16;;;6.03;100.00
5284;BME280;15377;48.540;9.268;2022-11-20T06:04:24;96961.56;;;6.01;100.00
5284;BME280;15377;48.540;9.268;2022-11-20T06:06:49;96962.91;;;5.96;100.00
5284;BME280;15377;48.540;9.268;2022-11-20T06:09:14;96959.09;;;5.94;100.00
5284;BME280;15377;48.540;9.268;2022-11-20T06:11:40;96960.03;;;5.91;100.00
5284;BME280;15377;48.540;9.268;2022-11-20T06:14:05;96947.72;;;5.86;100.00
5284;BME280;15377;48.540;9.268;2022-11-20T06:16:31;96953.19;;;5.86;100.00
5284;BME280;15377;48.540;9.268;2022-11-20T06:18:56;96965.19;;;5.89;100.00
5284;BME280;15377;48.540;9.268;2022-11-20T06:21:22;96963.19;;;5.89;100.00
5284;BME280;15377;48.540;9.268;2022-11-20T06:23:48;96961.25;;;5.90;100.00
5284;BME280;15377;48.540;9.268;2022-11-20T06:26:32;96968.66;;;5.89;100.00
5284;BME280;15377;48.540;9.268;2022-11-20T06:28:57;96956.38;;;5.85;100.00
5284;BME280;15377;48.540;9.268;2022-11-20T06:31:24;96961.25;;;5.90;100.00
5284;BME280;15377;48.540;9.268;2022-11-20T06:33:50;96958.50;;;5.90;100.00
5284;BME280;15377;48.540;9.268;2022-11-20T06:36:18;96960.59;;;5.86;100.00
5284;BME280;15377;48.540;9.268;2022-11-20T06:38:44;96958.03;;;5.82;100.00
5284;BME280;15377;48.540;9.268;2022-11-20T06:41:15;96963.34;;;5.86;100.00
5284;BME280;15377;48.540;9.268;2022-11-20T06:43:41;96961.53;;;5.83;100.00
5284;BME280;15377;48.540;9.268;2022-11-20T06:46:08;96961.81;;;5.85;100.00
5284;BME280;15377;48.540;9.268;2022-11-20T06:48:34;96960.59;;;5.86;100.00
5284;BME280;15377;48.540;9.268;2022-11-20T06:51:03;96973.97;;;5.93;100.00
5284;BME280;15377;48.540;9.268;2022-11-20T06:53:29;96974.75;;;5.93;100.00
5284;BME280;15377;48.540;9.268;2022-11-20T06:55:56;96972.03;;;5.93;100.00
5284;BME280;15377;48.540;9.268;2022-11-20T06:58:23;96976.56;;;5.96;100.00
5284;BME280;15377;48.540;9.268;2022-11-20T07:00:48;96970.94;;;5.91;100.00
5284;BME280;15377;48.540;9.268;2022-11-20T07:03:14;96981.59;;;5.98;100.00
5284;BME280;15377;48.540;9.268;2022-11-20T07:05:39;96978.41;;;5.99;100.00
5284;BME280;15377;48.540;9.268;2022-11-20T07:08:05;96979.16;;;6.00;100.00
5284;BME280;15377;48.540;9.268;2022-11-20T07:10:31;96957.44;;;5.87;100.00
5284;BME280;15377;48.540;9.268;2022-11-20T07:12:56;96967.63;;;5.96;100.00
5284;BME280;15377;48.540;9.268;2022-11-20T07:15:23;96976.72;;;6.02;100.00
5284;BME280;15377;48.540;9.268;2022-11-20T07:17:49;96980.53;;;6.04;100.00
5284;BME280;15377;48.540;9.268;2022-11-20T07:20:14;96980.41;;;6.08;100.00
5284;BME280;15377;48.540;9.268;2022-11-20T07:22:40;96991.81;;;6.15;100.00
5284;BME280;15377;48.540;9.268;2022-11-20T07:25:06;96992.69;;;6.12;100.00
5284;BME280;15377;48.540;9.268;2022-11-20T07:27:32;96994.97;;;6.14;100.00
5284;BME280;15377;48.540;9.268;2022-11-20T07:29:57;96997.72;;;6.14;100.00
5284;BME280;15377;48.540;9.268;2022-11-20T07:32:23;96981.91;;;6.09;100.00
5284;BME280;15377;48.540;9.268;2022-11-20T07:34:48;96996.84;;;6.26;100.00
5284;BME280;15377;48.540;9.268;2022-11-20T07:37:14;96997.44;;;6.30;100.00
5284;BME280;15377;48.540;9.268;2022-11-20T07:39:40;96983.47;;;6.28;100.00
5284;BME280;15377;48.540;9.268;2022-11-20T07:42:06;97001.09;;;6.36;100.00
5284;BME280;15377;48.540;9.268;2022-11-20T07:44:31;96991.09;;;6.42;100.00
5284;BME280;15377;48.540;9.268;2022-11-20T07:46:57;96992.00;;;6.48;100.00
5284;BME280;15377;48.540;9.268;2022-11-20T07:49:22;96996.56;;;6.51;100.00
5284;BME280;15377;48.540;9.268;2022-11-20T07:51:50;97005.66;;;6.57;100.00
5284;BME280;15377;48.540;9.268;2022-11-20T07:54:15;96999.44;;;6.56;100.00
5284;BME280;15377;48.540;9.268;2022-11-20T07:56:41;96997.16;;;6.55;100.00
5284;BME280;15377;48.540;9.268;2022-11-20T07:59:06;96989.44;;;6.53;100.00
5284;BME280;15377;48.540;9.268;2022-11-20T08:01:32;96997.34;;;6.69;100.00
5284;BME280;15377;48.540;9.268;2022-11-20T08:03:57;96997.47;;;6.84;100.00
5284;BME280;15377;48.540;9.268;2022-11-20T08:06:22;97002.66;;;6.91;100.00
5284;BME280;15377;48.540;9.268;2022-11-20T08:08:51;97000.66;;;7.00;100.00
5284;BME280;15377;48.540;9.268;2022-11-20T08:11:16;96998.22;;;7.02;100.00
5284;BME280;15377;48.540;9.268;2022-11-20T08:14:00;97007.16;;;7.11;100.00
5284;BME280;15377;48.540;9.268;2022-11-20T08:16:38;97007.78;;;7.15;100.00
5284;BME280;15377;48.540;9.268;2022-11-20T08:19:03;97013.25;;;7.24;100.00
5284;BME280;15377;48.540;9.268;2022-11-20T08:21:30;97014.75;;;7.25;100.00
5284;BME280;15377;48.540;9.268;2022-11-20T08:23:55;97004.56;;;7.35;100.00
5284;BME280;15377;48.540;9.268;2022-11-20T08:26:21;97013.22;;;7.33;100.00
5284;BME280;15377;48.540;9.268;2022-11-20T08:28:46;97008.38;;;7.28;100.00
5284;BME280;15377;48.540;9.268;2022-11-20T08:31:12;97026.00;;;7.27;100.00
5284;BME280;15377;48.540;9.268;2022-11-20T08:33:37;97034.03;;;7.31;100.00
5284;BME280;15377;48.540;9.268;2022-11-20T08:36:03;97029.06;;;7.20;100.00
5284;BME280;15377;48.540;9.268;2022-11-20T08:38:29;97032.09;;;7.22;100.00
5284;BME280;15377;48.540;9.268;2022-11-20T08:40:59;97027.53;;;7.19;100.00
5284;BME280;15377;48.540;9.268;2022-11-20T08:43:43;97031.19;;;7.16;100.00
5284;BME280;15377;48.540;9.268;2022-11-20T08:46:09;97032.13;;;7.13;100.00
5284;BME280;15377;48.540;9.268;2022-11-20T08:48:34;97044.56;;;7.23;100.00
5284;BME280;15377;48.540;9.268;2022-11-20T08:50:59;97032.41;;;7.15;100.00
5284;BME280;15377;48.540;9.268;2022-11-20T08:53:26;97041.97;;;7.29;100.00
5284;BME280;15377;48.540;9.268;2022-11-20T08:55:51;97042.09;;;7.34;100.00
5284;BME280;15377;48.540;9.268;2022-11-20T08:58:16;97034.97;;;7.37;100.00
5284;BME280;15377;48.540;9.268;2022-11-20T09:00:42;97038.75;;;7.39;100.00
5284;BME280;15377;48.540;9.268;2022-11-20T09:03:07;97039.38;;;7.43;100.00
5284;BME280;15377;48.540;9.268;2022-11-20T09:05:32;97042.09;;;7.52;100.00
5284;BME280;15377;48.540;9.268;2022-11-20T09:07:58;97046.63;;;7.55;100.00
5284;BME280;15377;48.540;9.268;2022-11-20T09:10:24;97041.78;;;7.41;100.00
5284;BME280;15377;48.540;9.268;2022-11-20T09:12:49;97037.25;;;7.38;100.00
5284;BME280;15377;48.540;9.268;2022-11-20T09:15:16;97040.91;;;7.35;100.00
5284;BME280;15377;48.540;9.268;2022-11-20T09:17:42;97047.88;;;7.45;100.00
5284;BME280;15377;48.540;9.268;2022-11-20T09:20:07;97032.50;;;7.39;100.00
5284;BME280;15377;48.540;9.268;2022-11-20T09:22:33;97040.28;;;7.31;100.00
5284;BME280;15377;48.540;9.268;2022-11-20T09:24:59;97038.75;;;7.39;100.00
5284;BME280;15377;48.540;9.268;2022-11-20T09:27:24;97043.31;;;7.42;100.00
5284;BME280;15377;48.540;9.268;2022-11-20T09:29:49;97048.47;;;7.49;100.00
5284;BME280;15377;48.540;9.268;2022-11-20T09:32:15;97057.75;;;7.52;100.00
5284;BME280;15377;48.540;9.268;2022-11-20T09:34:40;97045.84;;;7.55;100.00
5284;BME280;15377;48.540;9.268;2022-11-20T09:37:05;97047.25;;;7.59;100.00
5284;BME280;15377;48.540;9.268;2022-11-20T09:39:31;97048.44;;;7.58;100.00
5284;BME280;15377;48.540;9.268;2022-11-20T09:45:05;97056.34;;;7.56;100.00
5284;BME280;15377;48.540;9.268;2022-11-20T09:47:48;97060.94;;;7.50;100.00
5284;BME280;15377;48.540;9.268;2022-11-20T09:50:30;97062.13;;;7.58;100.00
5284;BME280;15377;48.540;9.268;2022-11-20T09:56:09;97075.72;;;7.35;100.00
5284;BME280;15377;48.540;9.268;2022-11-20T09:58:42;97079.38;;;7.23;100.00
5284;BME280;15377;48.540;9.268;2022-11-20T10:01:31;97081.03;;;7.11;100.00
5284;BME280;15377;48.540;9.268;2022-11-20T10:06:44;97079.84;;;7.13;100.00
5284;BME280;15377;48.540;9.268;2022-11-20T10:12:00;97072.53;;;7.09;100.00
5284;BME280;15377;48.540;9.268;2022-11-20T10:17:16;97067.97;;;7.15;100.00
5284;BME280;15377;48.540;9.268;2022-11-20T10:20:01;97054.28;;;7.15;100.00
5284;BME280;15377;48.540;9.268;2022-11-20T10:25:19;97057.31;;;7.17;100.00
5284;BME280;15377;48.540;9.268;2022-11-20T10:28:12;97059.75;;;7.24;100.00
5284;BME280;15377;48.540;9.268;2022-11-20T10:30:43;97061.44;;;7.22;100.00
5284;BME280;15377;48.540;9.268;2022-11-20T10:33:21;97060.34;;;7.19;100.00
5284;BME280;15377;48.540;9.268;2022-11-20T10:35:55;97066.00;;;7.25;100.00
5284;BME280;15377;48.540;9.268;2022-11-20T10:38:31;97067.03;;;7.27;100.00
5284;BME280;15377;48.540;9.268;2022-11-20T10:41:02;97070.41;;;7.31;100.00
5284;BME280;15377;48.540;9.268;2022-11-20T10:43:48;97061.13;;;7.20;100.00
5284;BME280;15377;48.540;9.268;2022-11-20T10:46:18;97032.72;;;7.08;100.00
5284;BME280;15377;48.540;9.268;2022-11-20T10:48:45;97053.53;;;7.33;100.00
5284;BME280;15377;48.540;9.268;2022-11-20T10:51:21;97062.63;;;7.48;100.00
5284;BME280;15377;48.540;9.268;2022-11-20T10:56:52;97044.19;;;7.57;100.00
5284;BME280;15377;48.540;9.268;2022-11-20T11:01:45;97045.19;;;7.87;100.00
5284;BME280;15377;48.540;9.268;2022-11-20T11:04:36;97048.63;;;7.96;100.00
5284;BME280;15377;48.540;9.268;2022-11-20T11:07:10;97048.28;;;8.03;100.00
5284;BME280;15377;48.540;9.268;2022-11-20T11:09:43;97053.59;;;8.07;100.00
5284;BME280;15377;48.540;9.268;2022-11-20T11:12:10;97048.28;;;8.03;100.00
5284;BME280;15377;48.540;9.268;2022-11-20T11:14:43;97040.69;;;8.07;100.00
5284;BME280;15377;48.540;9.268;2022-11-20T11:20:14;97023.63;;;8.03;100.00
5284;BME280;15377;48.540;9.268;2022-11-20T11:22:50;97020.28;;;8.08;100.00
5284;BME280;15377;48.540;9.268;2022-11-20T11:27:49;97024.72;;;8.38;100.00
5284;BME280;15377;48.540;9.268;2022-11-20T11:30:17;97019.81;;;8.42;100.00
5284;BME280;15377;48.540;9.268;2022-11-20T11:32:43;97013.19;;;8.49;100.00
5284;BME280;15377;48.540;9.268;2022-11-20T11:35:28;97008.78;;;8.51;100.00
5284;BME280;15377;48.540;9.268;2022-11-20T11:38:05;97002.53;;;8.89;100.00
5284;BME280;15377;48.540;9.268;2022-11-20T11:40:34;97004.75;;;8.99;100.00
5284;BME280;15377;48.540;9.268;2022-11-20T11:43:04;97010.38;;;9.19;100.00
5284;BME280;15377;48.540;9.268;2022-11-20T11:45:30;97002.22;;;9.10;100.00
5284;BME280;15377;48.540;9.268;2022-11-20T11:47:58;97001.63;;;9.06;100.00
5284;BME280;15377;48.540;9.268;2022-11-20T11:50:27;97002.59;;;9.03;100.00
5284;BME280;15377;48.540;9.268;2022-11-20T11:53:04;96998.22;;;8.97;100.00
5284;BME280;15377;48.540;9.268;2022-11-20T12:01:07;96985.53;;;8.99;100.00
5284;BME280;15377;48.540;9.268;2022-11-20T12:03:37;96982.16;;;9.19;100.00
5284;BME280;15377;48.540;9.268;2022-11-20T12:06:15;96981.78;;;9.26;100.00
5284;BME280;15377;48.540;9.268;2022-11-20T12:08:56;96979.03;;;9.11;100.00
5284;BME280;15377;48.540;9.268;2022-11-20T12:11:38;96977.78;;;9.12;100.00
5284;BME280;15377;48.540;9.268;2022-11-20T12:14:16;96978.16;;;9.20;100.00
5284;BME280;15377;48.540;9.268;2022-11-20T12:16:44;96965.50;;;9.22;100.00
5284;BME280;15377;48.540;9.268;2022-11-20T12:19:13;96970.63;;;9.15;100.00
5284;BME280;15377;48.540;9.268;2022-11-20T12:30:12;96977.91;;;8.65;100.00
5284;BME280;15377;48.540;9.268;2022-11-20T12:38:39;96960.56;;;8.59;100.00
5284;BME280;15377;48.540;9.268;2022-11-20T12:51:04;96964.53;;;8.96;100.00
5284;BME280;15377;48.540;9.268;2022-11-20T12:53:56;96964.91;;;8.89;100.00
5284;BME280;15377;48.540;9.268;2022-11-20T12:56:47;96964.53;;;9.11;100.00
5284;BME280;15377;48.540;9.268;2022-11-20T12:59:40;96972.41;;;9.03;100.00
5284;BME280;15377;48.540;9.268;2022-11-20T13:07:41;96970.78;;;9.11;100.00
5284;BME280;15377;48.540;9.268;2022-11-20T13:10:18;96970.28;;;8.98;100.00
5284;BME280;15377;48.540;9.268;2022-11-20T13:12:46;96971.19;;;8.66;100.00
5284;BME280;15377;48.540;9.268;2022-11-20T13:18:01;96967.81;;;8.48;100.00
5284;BME280;15377;48.540;9.268;2022-11-20T13:20:29;96956.09;;;8.47;100.00
5284;BME280;15377;48.540;9.268;2022-11-20T13:22:56;96966.72;;;8.54;100.00
5284;BME280;15377;48.540;9.268;2022-11-20T13:25:25;96967.72;;;8.42;100.00
5284;BME280;15377;48.540;9.268;2022-11-20T13:27:51;96957.75;;;8.30;100.00
5284;BME280;15377;48.540;9.268;2022-11-20T13:30:19;96948.38;;;8.22;100.00
5284;BME280;15377;48.540;9.268;2022-11-20T13:33:07;96963.00;;;8.10;100.00
5284;BME280;15377;48.540;9.268;2022-11-20T13:35:40;96964.97;;;8.10;100.00
5284;BME280;15377;48.540;9.268;2022-11-20T13:38:07;96971.53;;;8.12;100.00
5284;BME280;15377;48.540;9.268;2022-11-20T13:40:34;96961.78;;;8.11;100.00
5284;BME280;15377;48.540;9.268;2022-11-20T13:43:07;96957.13;;;8.03;100.00
5284;BME280;15377;48.540;9.268;2022-11-20T13:45:33;96947.53;;;7.98;100.00
5284;BME280;15377;48.540;9.268;2022-11-20T13:48:18;96954.56;;;7.99;100.00
5284;BME280;15377;48.540;9.268;2022-11-20T13:57:18;96922.44;;;8.00;100.00
5284;BME280;15377;48.540;9.268;2022-11-20T14:02:32;96923.41;;;8.11;100.00
5284;BME280;15377;48.540;9.268;2022-11-20T14:04:59;96927.63;;;8.21;100.00
5284;BME280;15377;48.540;9.268;2022-11-20T14:07:34;96914.06;;;8.27;100.00
5284;BME280;15377;48.540;9.268;2022-11-20T14:10:01;96913.66;;;8.19;100.00
5284;BME280;15377;48.540;9.268;2022-11-20T14:12:30;96912.81;;;8.04;100.00
5284;BME280;15377;48.540;9.268;2022-11-20T14:14:56;96911.69;;;7.87;100.00
5284;BME280;15377;48.540;9.268;2022-11-20T14:17:24;96909.63;;;7.73;100.00
5284;BME280;15377;48.540;9.268;2022-11-20T14:19:51;96911.53;;;7.67;100.00
5284;BME280;15377;48.540;9.268;2022-11-20T14:22:27;96916.69;;;7.65;100.00
5284;BME280;15377;48.540;9.268;2022-11-20T14:27:42;96906.28;;;7.78;100.00
5284;BME280;15377;48.540;9.268;2022-11-20T14:30:16;96916.22;;;7.90;100.00
5284;BME280;15377;48.540;9.268;2022-11-20T14:32:43;96912.28;;;7.91;100.00
5284;BME280;15377;48.540;9.268;2022-11-20T14:35:14;96908.16;;;7.96;100.00
5284;BME280;15377;48.540;9.268;2022-11-20T14:37:44;96906.50;;;7.89;100.00
5284;BME280;15377;48.540;9.268;2022-11-20T14:40:27;96907.44;;;7.86;100.00
5284;BME280;15377;48.540;9.268;2022-11-20T14:42:54;96908.56;;;7.80;100.00